Time;durP1;ratioP1;P1;durP2;ratioP2;P2;SDS_P1;SDS_P2;PMS_P1;PMS_P2;Temp;Humidity;BMP_temperature;BMP_pressure;BME280_temperature;BME280_humidity;BME280_pressure;Samples;Min_cycle;Max_cycle;Signal;HPM_P1;HPM_P2
2022/05/05 00:00:14;;;;;;;1.03;1.03;;;13.20;99.90;;;;;;5004592;28;20239;-64
2022/05/05 00:02:41;;;;;;;1.03;1.03;;;13.10;99.90;;;;;;5007583;28;20609;-64
2022/05/05 00:05:10;;;;;;;1.20;1.20;;;13.10;99.90;;;;;;5009824;28;20304;-64
2022/05/05 00:07:37;;;;;;;1.30;1.30;;;13.10;99.90;;;;;;5006719;28;20225;-66
2022/05/05 00:14:23;;;;;;;1.30;1.27;;;13.00;99.90;;;;;;5001615;28;20205;-65
2022/05/05 00:15:36;;;;;;;1.30;1.30;;;12.80;99.90;;;;;;5003428;28;20328;-65
2022/05/05 00:18:03;;;;;;;1.10;1.10;;;12.70;99.90;;;;;;5001439;28;20308;-64
2022/05/05 00:20:32;;;;;;;1.20;1.20;;;12.70;99.90;;;;;;5010595;28;20725;-64
2022/05/05 00:22:59;;;;;;;1.33;1.33;;;12.70;99.90;;;;;;5025333;28;20629;-64
2022/05/05 00:25:25;;;;;;;2.60;1.40;;;12.70;99.90;;;;;;5033661;28;20211;-65
2022/05/05 00:27:52;;;;;;;1.20;1.20;;;12.60;99.90;;;;;;5033919;28;20224;-65
2022/05/05 00:30:19;;;;;;;1.20;1.20;;;12.60;99.90;;;;;;5033048;28;20729;-64
2022/05/05 00:32:46;;;;;;;1.50;1.40;;;12.60;99.90;;;;;;5033229;28;20307;-64
2022/05/05 00:35:13;;;;;;;1.30;1.30;;;12.60;99.90;;;;;;5033673;28;20200;-64
2022/05/05 00:37:41;;;;;;;1.27;1.20;;;12.60;99.90;;;;;;5033392;28;20263;-63
2022/05/05 00:40:09;;;;;;;1.30;1.30;;;12.60;99.90;;;;;;5032969;28;20307;-64
2022/05/05 00:42:36;;;;;;;1.20;1.20;;;12.50;99.90;;;;;;5033315;28;20311;-64
2022/05/05 00:45:04;;;;;;;1.40;1.40;;;12.50;99.90;;;;;;5033029;28;20212;-65
2022/05/05 00:47:31;;;;;;;1.35;1.30;;;12.40;99.90;;;;;;5033343;28;20670;-64
2022/05/05 00:49:59;;;;;;;1.37;1.37;;;12.50;99.90;;;;;;5032775;28;20662;-64
2022/05/05 00:52:26;;;;;;;1.20;1.20;;;12.40;99.90;;;;;;5040577;28;20228;-65
2022/05/05 00:54:56;;;;;;;1.33;1.33;;;12.50;99.90;;;;;;5034353;28;20223;-66
2022/05/05 00:57:24;;;;;;;1.70;1.60;;;12.50;99.90;;;;;;5007358;28;20201;-65
2022/05/05 00:59:51;;;;;;;1.23;1.23;;;12.40;99.90;;;;;;5033183;28;20212;-65
2022/05/05 01:02:18;;;;;;;1.30;1.30;;;12.30;99.90;;;;;;5033926;28;20629;-64
2022/05/05 01:04:46;;;;;;;1.40;1.40;;;12.20;99.90;;;;;;5033577;28;20297;-64
2022/05/05 01:07:14;;;;;;;1.50;1.37;;;12.20;99.90;;;;;;5034177;28;20714;-65
2022/05/05 01:09:41;;;;;;;1.48;1.48;;;12.30;99.90;;;;;;5033135;28;20212;-64
2022/05/05 01:12:10;;;;;;;1.20;1.20;;;12.40;99.90;;;;;;5044995;28;20268;-65
2022/05/05 01:14:39;;;;;;;1.40;1.40;;;12.40;99.90;;;;;;5043914;28;20201;-63
2022/05/05 01:17:06;;;;;;;1.27;1.20;;;12.40;99.90;;;;;;5039387;28;20243;-63
2022/05/05 01:19:35;;;;;;;1.30;1.30;;;12.40;99.90;;;;;;5041426;28;20283;-64
2022/05/05 01:22:05;;;;;;;1.23;1.23;;;12.30;99.90;;;;;;5036381;28;20211;-63
2022/05/05 01:30:02;;;;;;;1.20;1.20;;;12.40;99.90;;;;;;5031759;28;20681;-64
2022/05/05 01:32:33;;;;;;;1.27;1.27;;;12.50;99.90;;;;;;5032286;28;20258;-62
2022/05/05 01:35:01;;;;;;;1.37;1.37;;;12.50;99.90;;;;;;5032355;28;20207;-64
2022/05/05 01:37:29;;;;;;;1.23;1.23;;;12.50;99.90;;;;;;5032313;28;20287;-64
2022/05/05 01:39:56;;;;;;;1.17;1.17;;;12.60;99.90;;;;;;5031554;28;20291;-64
2022/05/05 01:42:23;;;;;;;1.10;1.10;;;12.50;99.90;;;;;;5031930;28;20295;-64
2022/05/05 01:44:50;;;;;;;1.10;1.10;;;12.60;99.90;;;;;;5031805;28;20244;-63
2022/05/05 01:47:16;;;;;;;1.20;1.20;;;12.60;99.90;;;;;;5032026;28;20238;-62
2022/05/05 01:49:45;;;;;;;1.20;1.20;;;12.70;99.90;;;;;;5031341;28;20214;-63
2022/05/05 01:52:12;;;;;;;1.00;1.00;;;12.70;99.90;;;;;;5031937;28;20274;-64
2022/05/05 01:54:40;;;;;;;1.53;1.50;;;12.70;99.90;;;;;;5031781;28;20420;-63
2022/05/05 01:57:07;;;;;;;1.20;1.20;;;12.70;99.90;;;;;;5031982;28;20693;-64
2022/05/05 01:59:35;;;;;;;1.10;1.10;;;12.70;99.90;;;;;;5031399;28;20659;-62
2022/05/05 02:02:03;;;;;;;1.20;1.20;;;12.70;99.90;;;;;;5031711;28;20216;-62
2022/05/05 02:04:29;;;;;;;1.20;1.20;;;12.70;99.90;;;;;;5031900;28;20582;-64
2022/05/05 02:06:56;;;;;;;1.20;1.20;;;12.70;99.90;;;;;;5031504;28;20254;-64
2022/05/05 02:09:23;;;;;;;1.20;1.20;;;12.70;99.90;;;;;;5030676;28;20295;-63
2022/05/05 02:11:53;;;;;;;1.30;1.30;;;12.60;99.90;;;;;;5031563;28;20247;-64
2022/05/05 02:14:21;;;;;;;1.13;1.13;;;12.50;99.90;;;;;;5031463;28;20254;-63
2022/05/05 02:16:48;;;;;;;1.40;1.40;;;12.40;99.90;;;;;;5031546;28;20664;-62
2022/05/05 02:19:15;;;;;;;1.40;1.30;;;12.40;99.90;;;;;;5031173;28;20204;-62
2022/05/05 02:21:43;;;;;;;0.97;0.97;;;12.30;99.90;;;;;;5031657;28;20720;-62
2022/05/05 02:24:09;;;;;;;1.30;1.30;;;12.30;99.90;;;;;;5031980;28;20718;-64
2022/05/05 02:26:36;;;;;;;1.20;1.20;;;12.40;99.90;;;;;;5034332;28;20323;-63
2022/05/05 02:29:05;;;;;;;1.07;1.07;;;12.40;99.90;;;;;;5033764;28;20287;-63
2022/05/05 02:31:31;;;;;;;0.93;0.93;;;12.50;99.90;;;;;;5034328;28;20292;-64
2022/05/05 02:33:58;;;;;;;1.23;1.23;;;12.50;99.90;;;;;;5033806;28;20227;-62
2022/05/05 02:39:10;;;;;;;1.30;1.30;;;12.50;99.90;;;;;;5031013;28;20574;-64
2022/05/05 02:41:37;;;;;;;1.10;1.10;;;12.50;99.90;;;;;;5031570;28;20204;-63
2022/05/05 02:44:05;;;;;;;1.23;1.23;;;12.50;99.90;;;;;;5031470;28;20341;-64
2022/05/05 02:46:33;;;;;;;1.10;1.10;;;12.40;99.90;;;;;;5031214;28;20296;-62
2022/05/05 02:49:00;;;;;;;1.30;1.23;;;12.50;99.90;;;;;;5031156;28;20219;-63
2022/05/05 02:51:27;;;;;;;1.23;1.23;;;12.40;99.90;;;;;;5031364;28;20204;-64
2022/05/05 02:56:37;;;;;;;1.20;1.20;;;12.40;99.90;;;;;;5010396;28;20200;-63
2022/05/05 02:59:05;;;;;;;1.30;1.30;;;12.40;99.90;;;;;;5030383;28;20574;-64
2022/05/05 03:01:32;;;;;;;1.20;1.20;;;12.40;99.90;;;;;;5030974;28;20355;-63
2022/05/05 03:03:59;;;;;;;1.20;1.20;;;12.30;99.90;;;;;;5031085;28;20263;-62
2022/05/05 03:06:26;;;;;;;1.33;1.33;;;12.40;99.90;;;;;;5031110;28;20208;-62
2022/05/05 03:08:53;;;;;;;1.13;1.13;;;12.40;99.90;;;;;;5030408;28;20769;-63
2022/05/05 03:11:20;;;;;;;1.20;1.20;;;12.40;99.90;;;;;;5031111;28;20311;-63
2022/05/05 03:13:47;;;;;;;1.00;1.00;;;12.40;99.90;;;;;;5031142;28;20264;-62
2022/05/05 03:16:15;;;;;;;1.13;1.13;;;12.40;99.90;;;;;;5031438;28;20459;-64
2022/05/05 03:18:42;;;;;;;1.30;1.20;;;12.40;99.90;;;;;;5030608;28;20203;-64
2022/05/05 03:21:09;;;;;;;1.27;1.27;;;12.30;99.90;;;;;;5031045;28;20573;-63
2022/05/05 03:23:36;;;;;;;1.30;1.30;;;12.30;99.90;;;;;;5034528;28;20315;-62
2022/05/05 03:26:03;;;;;;;1.10;1.10;;;12.20;99.90;;;;;;5034910;28;20596;-64
2022/05/05 03:28:31;;;;;;;1.20;1.20;;;12.30;99.90;;;;;;5034619;28;20311;-64
2022/05/05 03:30:58;;;;;;;1.27;1.27;;;12.30;99.90;;;;;;5034204;28;20300;-64
2022/05/05 03:33:26;;;;;;;1.50;1.40;;;12.30;99.90;;;;;;5034932;28;20296;-63
2022/05/05 03:35:53;;;;;;;1.20;1.20;;;12.40;99.90;;;;;;5034543;28;20208;-65
2022/05/05 03:38:20;;;;;;;1.20;1.20;;;12.30;99.90;;;;;;5036006;28;20212;-63
2022/05/05 03:40:47;;;;;;;1.20;1.20;;;12.30;99.90;;;;;;5034880;28;20208;-63
2022/05/05 03:43:14;;;;;;;1.03;1.03;;;12.40;99.90;;;;;;5035389;28;20267;-64
2022/05/05 03:45:41;;;;;;;1.10;1.10;;;12.40;99.90;;;;;;5034748;28;20243;-64
2022/05/05 03:48:09;;;;;;;1.30;1.30;;;12.40;99.90;;;;;;5034412;28;20311;-64
2022/05/05 03:50:37;;;;;;;1.20;1.20;;;12.50;99.90;;;;;;5033712;28;20211;-62
2022/05/05 03:53:04;;;;;;;1.00;1.00;;;12.40;99.90;;;;;;5034037;28;20644;-64
2022/05/05 03:55:31;;;;;;;1.47;1.20;;;12.50;99.90;;;;;;5034329;28;20208;-63
2022/05/05 03:57:58;;;;;;;1.20;1.10;;;12.50;99.90;;;;;;5035125;28;20661;-62
2022/05/05 04:00:25;;;;;;;1.23;1.20;;;12.50;99.90;;;;;;5034216;28;20403;-63
2022/05/05 04:05:33;;;;;;;1.20;1.20;;;12.60;99.90;;;;;;5033771;28;20208;-63
2022/05/05 04:08:01;;;;;;;1.03;1.03;;;12.60;99.90;;;;;;5036107;28;20698;-62
2022/05/05 04:10:28;;;;;;;1.67;1.27;;;12.60;99.90;;;;;;5040603;28;20228;-62
2022/05/05 04:12:55;;;;;;;1.10;1.10;;;12.60;99.90;;;;;;5047868;28;20279;-62
2022/05/05 04:15:22;;;;;;;1.23;1.23;;;12.60;99.90;;;;;;5037906;28;20207;-65
2022/05/05 04:17:49;;;;;;;1.20;1.20;;;12.60;99.90;;;;;;5034210;28;20510;-63
2022/05/05 04:20:17;;;;;;;1.30;1.30;;;12.60;99.90;;;;;;5034036;28;20204;-63
2022/05/05 04:22:44;;;;;;;1.30;1.30;;;12.50;99.90;;;;;;5034179;28;20256;-62
2022/05/05 04:25:13;;;;;;;1.20;1.20;;;12.50;99.90;;;;;;5034220;28;20204;-63
2022/05/05 04:27:42;;;;;;;1.37;1.30;;;12.50;99.90;;;;;;5039268;28;20228;-65
2022/05/05 04:30:10;;;;;;;1.30;1.20;;;12.50;99.90;;;;;;5047109;28;20201;-63
2022/05/05 04:32:37;;;;;;;1.30;1.30;;;12.50;99.90;;;;;;5042448;28;20252;-65
2022/05/05 04:35:05;;;;;;;1.30;1.30;;;12.40;99.90;;;;;;5043205;28;20276;-63
2022/05/05 04:37:32;;;;;;;1.30;1.30;;;12.40;99.90;;;;;;5043431;28;20201;-63
2022/05/05 04:39:59;;;;;;;1.13;1.13;;;12.40;99.90;;;;;;5032979;28;20211;-64
2022/05/05 04:42:27;;;;;;;1.20;1.20;;;12.40;99.90;;;;;;5033368;28;20270;-63
2022/05/05 04:44:54;;;;;;;1.20;1.20;;;12.40;99.90;;;;;;5033191;28;20292;-63
2022/05/05 04:47:21;;;;;;;1.30;1.30;;;12.50;99.90;;;;;;5033081;28;20319;-64
2022/05/05 04:49:48;;;;;;;1.20;1.20;;;12.40;99.90;;;;;;5032816;28;20303;-63
2022/05/05 04:52:15;;;;;;;1.20;1.20;;;12.40;99.90;;;;;;5033056;28;20295;-64
2022/05/05 04:54:42;;;;;;;1.37;1.37;;;12.50;99.90;;;;;;5033160;28;20551;-65
2022/05/05 04:57:09;;;;;;;1.40;1.40;;;12.50;99.90;;;;;;5032725;28;20402;-64
2022/05/05 04:59:37;;;;;;;1.33;1.33;;;12.50;99.90;;;;;;5032343;28;20204;-63
2022/05/05 05:02:05;;;;;;;1.40;1.40;;;12.50;99.90;;;;;;5013607;28;20525;-62
2022/05/05 05:04:32;;;;;;;1.20;1.20;;;12.50;99.90;;;;;;5013311;28;20225;-63
2022/05/05 05:06:58;;;;;;;1.40;1.30;;;12.50;99.90;;;;;;5021049;28;20229;-62
2022/05/05 05:09:25;;;;;;;1.30;1.30;;;12.50;99.90;;;;;;5013616;28;20275;-63
2022/05/05 05:11:52;;;;;;;1.30;1.30;;;12.60;99.90;;;;;;5015142;28;20261;-63
2022/05/05 05:14:19;;;;;;;1.30;1.20;;;12.60;99.90;;;;;;5015793;28;20316;-64
2022/05/05 05:16:47;;;;;;;1.25;1.25;;;12.60;99.90;;;;;;5016209;28;20273;-63
2022/05/05 05:19:14;;;;;;;1.30;1.30;;;12.70;99.90;;;;;;5017893;28;20292;-63
2022/05/05 05:21:41;;;;;;;1.27;1.27;;;12.70;99.90;;;;;;5025013;28;20300;-63
2022/05/05 05:24:08;;;;;;;1.17;1.17;;;12.80;99.90;;;;;;5012498;28;20228;-62
2022/05/05 05:26:36;;;;;;;1.03;1.03;;;12.90;99.90;;;;;;5012173;28;20292;-63
2022/05/05 05:29:03;;;;;;;1.13;1.13;;;12.90;99.90;;;;;;5003420;28;20300;-63
2022/05/05 05:31:30;;;;;;;1.17;1.17;;;12.90;99.90;;;;;;5013165;28;20245;-64
2022/05/05 05:33:59;;;;;;;1.20;1.20;;;13.00;99.90;;;;;;5012600;28;20313;-64
2022/05/05 05:36:26;;;;;;;1.50;1.40;;;13.00;99.90;;;;;;5026679;28;20224;-63
2022/05/05 05:38:53;;;;;;;1.20;1.20;;;13.00;99.90;;;;;;5032026;28;20271;-63
2022/05/05 05:41:20;;;;;;;1.20;1.20;;;13.00;99.90;;;;;;5020808;28;20224;-64
2022/05/05 05:43:47;;;;;;;1.10;1.10;;;13.00;99.90;;;;;;5018765;28;20225;-63
2022/05/05 05:46:14;;;;;;;1.30;1.30;;;13.10;99.90;;;;;;5031755;28;20625;-64
2022/05/05 05:48:41;;;;;;;1.13;1.13;;;13.10;99.90;;;;;;5031453;28;20322;-64
2022/05/05 05:51:10;;;;;;;1.20;1.20;;;13.00;99.90;;;;;;5031759;28;20291;-64
2022/05/05 05:53:37;;;;;;;1.40;1.40;;;13.10;99.90;;;;;;5031693;28;20231;-63
2022/05/05 05:56:04;;;;;;;1.47;1.37;;;13.00;99.90;;;;;;5032278;28;20291;-64
2022/05/05 05:58:31;;;;;;;1.30;1.30;;;13.00;99.90;;;;;;5032572;28;20211;-63
2022/05/05 06:00:58;;;;;;;1.60;1.50;;;13.00;99.90;;;;;;5017195;28;20236;-62
2022/05/05 06:06:11;;;;;;;1.20;1.20;;;13.00;99.90;;;;;;5012666;28;20305;-63
2022/05/05 06:08:38;;;;;;;1.30;1.30;;;13.00;99.90;;;;;;5027921;28;20240;-63
2022/05/05 06:11:05;;;;;;;1.43;1.43;;;13.10;99.90;;;;;;5003205;28;20265;-63
2022/05/05 06:13:32;;;;;;;1.30;1.30;;;13.20;99.90;;;;;;5010295;28;20305;-63
2022/05/05 06:15:59;;;;;;;1.50;1.50;;;13.20;99.90;;;;;;5025017;28;20235;-63
2022/05/05 06:18:26;;;;;;;1.83;1.73;;;13.20;99.90;;;;;;5003884;28;20292;-63
2022/05/05 06:20:54;;;;;;;2.07;1.97;;;13.20;99.90;;;;;;5007228;28;20652;-63
2022/05/05 06:23:22;;;;;;;1.73;1.73;;;13.20;99.90;;;;;;5011304;28;20343;-64
2022/05/05 06:25:49;;;;;;;1.60;1.50;;;13.20;99.90;;;;;;5010887;28;20645;-63
2022/05/05 06:28:16;;;;;;;1.90;1.80;;;13.20;99.90;;;;;;5011206;28;20220;-63
2022/05/05 06:30:43;;;;;;;1.70;1.60;;;13.20;99.90;;;;;;5003435;28;20320;-64
2022/05/05 06:33:10;;;;;;;1.60;1.60;;;13.20;99.90;;;;;;5011671;28;20229;-64
2022/05/05 06:35:37;;;;;;;1.80;1.70;;;13.30;99.90;;;;;;5009069;28;20211;-64
2022/05/05 06:38:03;;;;;;;1.90;1.80;;;13.40;99.90;;;;;;5010418;28;20233;-65
2022/05/05 06:40:34;;;;;;;1.60;1.60;;;13.40;99.90;;;;;;5010376;28;20202;-62
2022/05/05 06:43:01;;;;;;;2.00;1.90;;;13.50;99.90;;;;;;5011411;28;20224;-64
2022/05/05 06:45:27;;;;;;;1.90;1.80;;;13.50;99.90;;;;;;5011499;28;20301;-64
2022/05/05 06:47:58;;;;;;;2.10;2.00;;;13.50;99.90;;;;;;5011790;28;20544;-63
2022/05/05 06:50:25;;;;;;;2.10;2.00;;;13.40;99.90;;;;;;5010450;28;20208;-63
2022/05/05 06:52:53;;;;;;;2.10;2.00;;;13.40;99.90;;;;;;5011212;28;20232;-63
2022/05/05 06:55:20;;;;;;;1.90;1.80;;;13.50;99.90;;;;;;5011353;28;20209;-64
2022/05/05 06:57:48;;;;;;;2.20;2.10;;;13.60;99.90;;;;;;5015408;28;20213;-62
2022/05/05 07:00:16;;;;;;;2.10;2.00;;;13.50;99.90;;;;;;5014749;28;20307;-63
2022/05/05 07:02:42;;;;;;;2.10;2.00;;;13.50;99.90;;;;;;5015184;28;20602;-64
2022/05/05 07:05:26;;;;;;;2.00;1.90;;;13.60;99.90;;;;;;5014566;28;20291;-63
2022/05/05 07:07:53;;;;;;;2.07;1.97;;;13.60;99.90;;;;;;5019966;28;20656;-63
2022/05/05 07:13:06;;;;;;;1.70;1.70;;;13.70;99.90;;;;;;5015195;28;20670;-62
2022/05/05 07:15:34;;;;;;;2.00;1.90;;;13.80;99.90;;;;;;5015147;28;20212;-63
2022/05/05 07:18:01;;;;;;;2.17;2.07;;;13.80;99.90;;;;;;5015412;28;20201;-63
2022/05/05 07:20:28;;;;;;;2.00;1.90;;;13.90;99.90;;;;;;5014701;28;20240;-65
2022/05/05 07:22:56;;;;;;;2.17;2.07;;;13.80;99.90;;;;;;5014503;28;20229;-63
2022/05/05 07:25:24;;;;;;;2.00;1.90;;;13.80;99.90;;;;;;5015128;28;20205;-65
2022/05/05 07:27:50;;;;;;;1.90;1.80;;;13.80;99.90;;;;;;5014769;28;20205;-63
2022/05/05 07:30:19;;;;;;;2.00;1.90;;;13.80;99.90;;;;;;5014666;28;20248;-64
2022/05/05 07:32:46;;;;;;;2.40;2.30;;;13.80;99.90;;;;;;5014956;28;20236;-63
2022/05/05 07:35:13;;;;;;;2.40;2.30;;;13.80;99.90;;;;;;5014401;28;20255;-62
2022/05/05 07:37:40;;;;;;;2.03;1.93;;;13.80;99.90;;;;;;5015210;28;20238;-63
2022/05/05 07:40:09;;;;;;;1.97;1.87;;;13.70;99.90;;;;;;5016183;28;20288;-63
2022/05/05 07:42:37;;;;;;;2.30;2.10;;;13.80;99.90;;;;;;5015267;28;20237;-63
2022/05/05 07:45:05;;;;;;;1.60;1.60;;;13.70;99.90;;;;;;5024133;28;20240;-64
2022/05/05 07:47:33;;;;;;;1.90;1.80;;;13.80;99.90;;;;;;5031789;28;20240;-64
2022/05/05 07:50:00;;;;;;;2.03;1.93;;;13.80;99.90;;;;;;5035833;28;20227;-64
2022/05/05 07:52:27;;;;;;;2.10;2.00;;;13.80;99.90;;;;;;5033893;28;20237;-66
2022/05/05 07:54:54;;;;;;;1.90;1.80;;;13.90;99.90;;;;;;5033407;28;20229;-64
2022/05/05 07:57:22;;;;;;;2.30;2.20;;;13.90;99.90;;;;;;5028617;28;20239;-62
2022/05/05 07:59:50;;;;;;;2.33;2.22;;;13.90;99.90;;;;;;5015835;28;20252;-61
2022/05/05 08:02:17;;;;;;;2.43;2.30;;;13.90;99.90;;;;;;5014517;28;20209;-64
2022/05/05 08:04:46;;;;;;;2.20;2.10;;;13.90;99.90;;;;;;5014560;28;20288;-64
2022/05/05 08:07:13;;;;;;;1.85;1.75;;;13.90;99.90;;;;;;5014146;28;20296;-64
2022/05/05 08:09:40;;;;;;;1.70;1.70;;;14.00;99.90;;;;;;5013307;28;20221;-64
2022/05/05 08:12:08;;;;;;;2.20;2.10;;;14.10;99.90;;;;;;5014687;28;20292;-62
2022/05/05 08:14:35;;;;;;;2.27;2.17;;;14.20;99.90;;;;;;5014004;28;20237;-63
2022/05/05 08:17:02;;;;;;;1.80;1.70;;;14.20;99.90;;;;;;5014301;28;20287;-65
2022/05/05 08:19:29;;;;;;;2.23;2.13;;;14.20;99.90;;;;;;5013720;28;20243;-62
2022/05/05 08:21:58;;;;;;;1.93;1.83;;;14.20;99.90;;;;;;5014416;28;20280;-64
2022/05/05 08:29:55;;;;;;;2.17;2.07;;;14.00;99.90;;;;;;4988115;28;20233;-63
2022/05/05 08:32:23;;;;;;;1.73;1.63;;;14.10;99.90;;;;;;5013987;28;20209;-62
2022/05/05 08:34:50;;;;;;;1.87;1.77;;;14.20;99.90;;;;;;5014210;28;20205;-62
2022/05/05 08:37:18;;;;;;;2.30;2.10;;;14.30;99.90;;;;;;5014397;28;20205;-63
2022/05/05 08:39:45;;;;;;;2.07;1.97;;;14.30;99.90;;;;;;5013447;28;20288;-63
2022/05/05 08:42:12;;;;;;;2.10;2.00;;;14.30;99.90;;;;;;5014269;28;20240;-62
2022/05/05 08:44:39;;;;;;;2.10;2.00;;;14.30;99.90;;;;;;5015328;28;20296;-64
2022/05/05 08:47:09;;;;;;;2.40;2.30;;;14.30;99.90;;;;;;5023583;28;20206;-63
2022/05/05 08:49:37;;;;;;;2.10;2.00;;;14.40;99.90;;;;;;5024900;28;20300;-63
2022/05/05 08:52:07;;;;;;;2.30;2.20;;;14.30;99.90;;;;;;5021915;28;20214;-62
2022/05/05 08:54:39;;;;;;;2.33;2.23;;;14.30;99.90;;;;;;5013504;28;20235;-62
2022/05/05 08:57:06;;;;;;;2.60;2.50;;;14.30;99.90;;;;;;5013697;28;20205;-62
2022/05/05 08:59:33;;;;;;;2.10;2.00;;;14.30;99.90;;;;;;5012955;28;20239;-63
2022/05/05 09:02:00;;;;;;;2.20;2.10;;;14.50;99.90;;;;;;5013625;28;20252;-64
2022/05/05 09:04:27;;;;;;;2.30;2.20;;;14.40;99.90;;;;;;5012644;28;20715;-64
2022/05/05 09:06:54;;;;;;;2.10;2.00;;;14.50;99.90;;;;;;5012304;28;20206;-64
2022/05/05 09:09:26;;;;;;;1.83;1.83;;;14.50;99.90;;;;;;5012810;28;20766;-63
2022/05/05 09:12:12;;;;;;;2.20;2.10;;;14.80;99.90;;;;;;5013105;28;20217;-63
2022/05/05 09:14:41;;;;;;;2.03;1.92;;;14.80;99.90;;;;;;5012654;28;20289;-63
2022/05/05 09:17:10;;;;;;;2.33;2.23;;;14.90;99.90;;;;;;5013300;28;20215;-63
2022/05/05 09:19:39;;;;;;;2.17;2.07;;;15.00;99.90;;;;;;5012960;28;20216;-64
2022/05/05 09:22:07;;;;;;;2.30;2.20;;;15.00;99.90;;;;;;5013163;28;20300;-63
2022/05/05 09:24:41;;;;;;;2.20;2.10;;;15.00;99.90;;;;;;5012588;28;20363;-64
2022/05/05 09:27:28;;;;;;;2.30;2.20;;;15.00;99.90;;;;;;5013182;28;20244;-64
2022/05/05 09:30:07;;;;;;;2.00;1.90;;;15.00;99.90;;;;;;5012065;28;20268;-64
2022/05/05 09:32:35;;;;;;;2.10;2.00;;;15.10;99.90;;;;;;5012928;28;20743;-64
2022/05/05 09:35:06;;;;;;;3.07;2.30;;;15.10;99.90;;;;;;5013012;28;20289;-63
2022/05/05 09:37:34;;;;;;;2.30;2.20;;;15.10;99.90;;;;;;5006865;28;20210;-63
2022/05/05 09:40:03;;;;;;;2.10;2.00;;;15.20;99.90;;;;;;5006404;28;20254;-63
2022/05/05 09:42:42;;;;;;;2.30;2.20;;;15.20;99.90;;;;;;5012110;28;20201;-63
2022/05/05 09:45:13;;;;;;;2.40;2.30;;;15.10;99.90;;;;;;5002882;28;20223;-63
2022/05/05 09:47:41;;;;;;;2.20;2.10;;;15.10;99.90;;;;;;5005911;28;20304;-64
2022/05/05 09:50:09;;;;;;;2.30;2.20;;;15.10;99.90;;;;;;5015389;28;20590;-63
2022/05/05 09:58:10;;;;;;;2.33;2.23;;;15.10;99.90;;;;;;5013171;28;20403;-64
2022/05/05 10:00:47;;;;;;;2.23;2.13;;;15.20;99.90;;;;;;5009209;28;20213;-64
2022/05/05 10:06:17;;;;;;;2.20;2.10;;;15.20;99.90;;;;;;5002915;28;20677;-63
2022/05/05 10:08:46;;;;;;;2.60;2.50;;;15.30;99.90;;;;;;5008543;28;20209;-65
2022/05/05 10:11:15;;;;;;;2.53;2.43;;;15.40;99.90;;;;;;5010719;28;20204;-66
2022/05/05 10:13:45;;;;;;;2.00;1.90;;;15.30;99.90;;;;;;5024414;28;20259;-64
2022/05/05 10:16:14;;;;;;;2.17;2.07;;;15.40;99.90;;;;;;5008300;28;20288;-62
2022/05/05 10:18:43;;;;;;;2.20;2.10;;;15.50;99.90;;;;;;5004457;28;20229;-62
2022/05/05 10:21:15;;;;;;;2.13;2.03;;;15.50;99.90;;;;;;5005171;28;20289;-62
2022/05/05 10:23:55;;;;;;;1.80;1.80;;;15.40;99.90;;;;;;4996981;28;20607;-64
2022/05/05 10:26:23;;;;;;;2.33;2.23;;;15.40;99.90;;;;;;4994336;28;20205;-63
2022/05/05 10:28:52;;;;;;;2.37;2.27;;;15.60;99.90;;;;;;4994854;28;20216;-63
2022/05/05 10:31:45;;;;;;;2.03;1.93;;;15.60;99.90;;;;;;4992670;28;20206;-65
2022/05/05 10:34:19;;;;;;;2.20;2.10;;;15.60;99.90;;;;;;5019070;28;20217;-64
2022/05/05 10:37:01;;;;;;;2.47;2.37;;;15.70;99.90;;;;;;5028334;28;20201;-62
2022/05/05 10:39:44;;;;;;;2.43;2.33;;;15.50;99.90;;;;;;5030273;28;20211;-64
2022/05/05 10:42:16;;;;;;;2.40;2.30;;;15.40;99.90;;;;;;5031385;28;20200;-65
2022/05/05 10:45:20;;;;;;;2.17;2.07;;;15.40;99.90;;;;;;5030714;28;20643;-64
2022/05/05 10:48:31;;;;;;;2.30;2.20;;;15.50;99.90;;;;;;5030664;28;20269;-63
2022/05/05 10:51:08;;;;;;;2.47;2.37;;;15.60;99.90;;;;;;5033629;28;20588;-64
2022/05/05 10:53:40;;;;;;;2.10;2.00;;;15.50;99.90;;;;;;5047753;28;20293;-65
2022/05/05 10:56:28;;;;;;;2.27;2.07;;;15.50;99.90;;;;;;5039837;28;20550;-64
2022/05/05 10:59:13;;;;;;;2.20;2.10;;;15.60;99.90;;;;;;5040833;28;20219;-63
2022/05/05 11:02:00;;;;;;;2.00;1.90;;;15.70;99.90;;;;;;5038759;28;20248;-65
2022/05/05 11:04:33;;;;;;;2.00;1.90;;;15.60;99.90;;;;;;5030403;28;20231;-63
2022/05/05 11:07:36;;;;;;;2.20;2.10;;;15.60;99.90;;;;;;5030739;28;20239;-62
2022/05/05 11:10:06;;;;;;;2.60;2.50;;;15.70;99.90;;;;;;5017065;28;20220;-63
2022/05/05 11:12:35;;;;;;;2.23;2.13;;;15.60;99.90;;;;;;5022529;28;20208;-64
2022/05/05 11:23:45;;;;;;;2.43;2.33;;;15.60;99.90;;;;;;5031357;28;20231;-63
2022/05/05 11:26:16;;;;;;;3.03;2.83;;;15.60;99.90;;;;;;5031236;28;20215;-64
2022/05/05 11:28:43;;;;;;;2.53;2.43;;;15.60;99.90;;;;;;5029814;28;20239;-63
2022/05/05 11:31:23;;;;;;;2.60;2.50;;;15.50;99.90;;;;;;5031609;28;20339;-63
2022/05/05 11:33:54;;;;;;;2.90;2.70;;;15.40;99.90;;;;;;5030040;28;20225;-65
2022/05/05 11:36:27;;;;;;;2.60;2.43;;;15.40;99.90;;;;;;5015084;28;20214;-63
2022/05/05 11:38:54;;;;;;;3.00;2.90;;;15.40;99.90;;;;;;5010582;28;20210;-64
2022/05/05 11:41:21;;;;;;;3.22;3.13;;;15.40;99.90;;;;;;5011320;28;20215;-64
2022/05/05 11:46:36;;;;;;;3.43;3.23;;;15.40;99.90;;;;;;5014749;28;20196;-62
2022/05/05 11:49:03;;;;;;;3.30;3.20;;;15.30;99.90;;;;;;5014288;28;21166;-64
2022/05/05 11:51:32;;;;;;;3.27;3.10;;;15.20;99.90;;;;;;5015677;28;20264;-63
2022/05/05 11:54:06;;;;;;;3.10;3.00;;;15.20;99.90;;;;;;5015752;28;20225;-64
2022/05/05 11:56:34;;;;;;;3.13;3.03;;;15.20;99.90;;;;;;5015318;28;20205;-63
2022/05/05 12:02:05;;;;;;;3.83;3.63;;;15.30;99.90;;;;;;5014421;28;20202;-64
2022/05/05 12:04:34;;;;;;;3.40;3.20;;;15.30;99.90;;;;;;5028081;28;20229;-63
2022/05/05 12:07:04;;;;;;;3.53;3.33;;;15.10;99.90;;;;;;5035241;28;20216;-65
2022/05/05 12:09:31;;;;;;;3.07;2.97;;;15.10;99.90;;;;;;5035779;28;20318;-62
2022/05/05 12:12:13;;;;;;;3.57;3.37;;;15.00;99.90;;;;;;5036827;28;20286;-63
2022/05/05 12:14:46;;;;;;;3.50;3.30;;;14.90;99.90;;;;;;5013069;28;20208;-63
2022/05/05 12:17:19;;;;;;;3.77;3.57;;;14.90;99.90;;;;;;5030526;28;20233;-63
2022/05/05 12:19:51;;;;;;;3.80;3.60;;;14.90;99.90;;;;;;5037030;28;20243;-66
2022/05/05 12:22:28;;;;;;;3.20;3.00;;;14.90;99.90;;;;;;5034908;28;20287;-64
2022/05/05 12:24:58;;;;;;;4.53;4.23;;;15.00;99.90;;;;;;5034959;28;20207;-65
2022/05/05 12:27:26;;;;;;;3.70;3.50;;;14.90;99.90;;;;;;5033842;28;20219;-63
2022/05/05 12:29:53;;;;;;;3.90;3.70;;;14.90;99.90;;;;;;5032969;28;20633;-66
2022/05/05 12:32:20;;;;;;;3.50;3.30;;;14.90;99.90;;;;;;5034262;28;20295;-64
2022/05/05 12:34:48;;;;;;;3.90;3.70;;;14.90;99.90;;;;;;5033982;28;20307;-63
2022/05/05 12:37:17;;;;;;;3.90;3.70;;;14.90;99.90;;;;;;5033671;28;20215;-64
2022/05/05 12:39:57;;;;;;;3.90;3.70;;;14.90;99.90;;;;;;5032446;28;20300;-63
2022/05/05 12:42:25;;;;;;;3.17;2.97;;;14.90;99.90;;;;;;5034293;28;20586;-65
2022/05/05 12:44:52;;;;;;;3.57;3.37;;;14.90;99.90;;;;;;5034947;28;20239;-64
2022/05/05 12:47:23;;;;;;;4.00;3.80;;;15.00;99.90;;;;;;5034157;28;20213;-64
2022/05/05 12:49:51;;;;;;;3.60;3.40;;;15.00;99.90;;;;;;5033419;28;20239;-66
2022/05/05 13:00:51;;;;;;;3.60;3.40;;;15.00;99.90;;;;;;5032710;28;20234;-65
2022/05/05 13:03:21;;;;;;;3.67;3.47;;;14.90;99.90;;;;;;5032658;28;20264;-63
2022/05/05 13:05:48;;;;;;;3.23;3.13;;;15.00;99.90;;;;;;5033190;28;20208;-65
2022/05/05 13:08:15;;;;;;;3.50;3.30;;;15.10;99.90;;;;;;5033685;28;20244;-66
2022/05/05 13:10:43;;;;;;;4.17;3.97;;;15.00;99.90;;;;;;5032556;28;20225;-64
2022/05/05 13:13:10;;;;;;;3.93;3.63;;;14.90;99.90;;;;;;5033046;28;20251;-64
2022/05/05 13:15:37;;;;;;;4.00;3.80;;;14.90;99.90;;;;;;5033047;28;20204;-63
2022/05/05 13:18:05;;;;;;;4.23;4.03;;;15.00;99.90;;;;;;5032898;28;20266;-65
2022/05/05 13:20:33;;;;;;;4.80;4.50;;;14.90;99.90;;;;;;5040501;28;20719;-63
2022/05/05 13:23:00;;;;;;;3.97;3.77;;;14.90;99.90;;;;;;5040438;28;20224;-63
2022/05/05 13:25:27;;;;;;;3.70;3.50;;;15.00;99.90;;;;;;5039577;28;20204;-64
2022/05/05 13:27:55;;;;;;;3.80;3.60;;;15.00;99.90;;;;;;5038167;28;20349;-63
2022/05/05 13:30:22;;;;;;;3.70;3.50;;;15.00;99.90;;;;;;5035081;28;20270;-66
2022/05/05 13:32:49;;;;;;;3.73;3.43;;;14.90;99.90;;;;;;5033419;28;20235;-63
2022/05/05 13:35:16;;;;;;;4.00;3.80;;;15.00;99.90;;;;;;5032822;28;20216;-63
2022/05/05 13:37:43;;;;;;;4.00;3.80;;;14.90;99.90;;;;;;5032815;28;20255;-64
2022/05/05 13:40:11;;;;;;;3.87;3.67;;;14.90;99.90;;;;;;5032262;28;20292;-65
2022/05/05 13:42:38;;;;;;;3.00;2.90;;;14.90;99.90;;;;;;5032563;28;20358;-63
2022/05/05 13:45:07;;;;;;;3.20;3.00;;;14.90;99.90;;;;;;5032113;28;20821;-63
2022/05/05 13:47:35;;;;;;;3.50;3.30;;;15.00;99.90;;;;;;5033009;28;20200;-63
2022/05/05 13:50:02;;;;;;;3.60;3.40;;;15.00;99.90;;;;;;5033355;28;20287;-64
2022/05/05 13:52:29;;;;;;;3.43;3.20;;;14.90;99.90;;;;;;5034840;28;20223;-64
2022/05/05 13:54:56;;;;;;;3.30;3.20;;;15.00;99.90;;;;;;5034393;28;20660;-62